Time;durP1;ratioP1;P1;durP2;ratioP2;P2;SDS_P1;SDS_P2;PMS_P1;PMS_P2;Temp;Humidity;BMP_temperature;BMP_pressure;BME280_temperature;BME280_humidity;BME280_pressure;Samples;Min_cycle;Max_cycle;Signal;HPM_P1;HPM_P2
2021/06/21 00:00:15;;;;;;;11.20;8.88;;;23.80;99.90;;;24.77;87.80;99039.28;5115054;28;20215;-62
2021/06/21 00:02:44;;;;;;;12.27;8.80;;;23.70;99.90;;;24.64;89.77;99056.88;5115351;28;20270;-62
2021/06/21 00:05:16;;;;;;;12.38;9.73;;;23.60;99.90;;;24.82;88.83;99066.63;5114985;28;20701;-62
2021/06/21 00:07:45;;;;;;;12.32;10.02;;;23.60;99.90;;;24.93;88.67;99067.81;5114820;28;20187;-63
2021/06/21 00:10:17;;;;;;;9.85;8.95;;;23.70;99.90;;;24.73;89.32;99074.16;5115094;28;20196;-62
2021/06/21 00:12:47;;;;;;;10.02;9.00;;;23.70;99.90;;;24.63;91.77;99082.81;5114950;28;20184;-63
2021/06/21 00:15:19;;;;;;;10.35;8.70;;;23.60;99.90;;;24.54;92.67;99090.38;5114791;28;20187;-62
2021/06/21 00:17:49;;;;;;;10.55;8.57;;;23.60;99.90;;;24.49;93.37;99082.31;5114811;28;20183;-64
2021/06/21 00:20:21;;;;;;;13.32;9.50;;;23.50;99.90;;;24.60;93.11;99089.00;5114943;28;20202;-63
2021/06/21 00:22:51;;;;;;;10.23;9.15;;;23.50;99.90;;;24.68;92.39;99101.88;5114161;28;20200;-62
2021/06/21 00:25:21;;;;;;;12.52;9.43;;;23.50;99.90;;;24.44;94.55;99165.91;5115180;28;20298;-63
2021/06/21 00:27:52;;;;;;;11.05;9.88;;;23.40;99.90;;;24.44;94.55;99165.91;5115009;28;20533;-64
2021/06/21 00:30:23;;;;;;;15.85;7.03;;;23.50;99.90;;;24.94;88.13;99281.66;5113583;28;20195;-63
2021/06/21 00:32:52;;;;;;;7.50;4.80;;;23.70;99.90;;;24.21;93.29;99208.69;5113646;28;20270;-63
2021/06/21 00:35:21;;;;;;;11.00;3.28;;;23.60;99.90;;;23.17;100.00;99263.47;5114102;28;20199;-63
2021/06/21 00:37:50;;;;;;;5.38;3.00;;;22.90;99.90;;;22.29;100.00;99338.88;5113316;28;20647;-62
2021/06/21 00:40:20;;;;;;;6.57;2.97;;;22.10;99.90;;;21.70;100.00;99367.53;5114070;28;20286;-61
2021/06/21 00:42:49;;;;;;;5.88;2.75;;;21.50;99.90;;;21.48;100.00;99373.00;5111551;28;20331;-62
2021/06/21 00:45:20;;;;;;;6.10;2.08;;;21.00;99.90;;;21.23;100.00;99368.09;5113257;28;20205;-62
2021/06/21 00:47:50;;;;;;;4.47;2.00;;;20.60;99.90;;;21.14;100.00;99383.66;5109591;28;20319;-62
2021/06/21 00:50:19;;;;;;;3.20;1.77;;;20.40;99.90;;;21.03;100.00;99371.28;5113934;28;20291;-62
2021/06/21 00:52:53;;;;;;;7.40;2.50;;;20.20;99.90;;;21.11;100.00;99374.13;5113554;28;20326;-61
2021/06/21 00:55:21;;;;;;;4.05;2.17;;;20.20;99.90;;;21.22;100.00;99370.06;5113996;28;20238;-62
2021/06/21 00:57:50;;;;;;;3.30;2.08;;;20.10;99.90;;;21.13;100.00;99355.44;5113892;28;20208;-62
2021/06/21 01:00:23;;;;;;;4.03;2.40;;;20.10;99.90;;;21.13;100.00;99365.59;5114009;28;20208;-61
2021/06/21 01:02:51;;;;;;;4.88;2.60;;;20.10;99.90;;;20.98;100.00;99396.88;5114034;28;20221;-62
2021/06/21 01:05:22;;;;;;;5.03;2.67;;;20.00;99.90;;;21.12;100.00;99408.63;5114047;28;20315;-61
2021/06/21 01:07:53;;;;;;;4.50;3.00;;;20.00;99.90;;;20.88;100.00;99394.31;5113426;28;20189;-63
2021/06/21 01:10:25;;;;;;;5.25;2.88;;;20.00;99.90;;;21.04;100.00;99367.47;5114288;28;20195;-63
2021/06/21 01:13:26;;;;;;;7.75;2.70;;;20.00;99.90;;;20.88;100.00;99361.47;5113923;28;20289;-61
2021/06/21 01:16:10;;;;;;;5.55;2.88;;;19.90;99.90;;;21.00;100.00;99306.19;5113856;28;20293;-62
2021/06/21 01:18:45;;;;;;;4.97;2.83;;;20.00;99.90;;;21.03;100.00;99272.69;5113464;28;20187;-62
2021/06/21 01:22:10;;;;;;;4.35;2.67;;;20.00;99.90;;;20.76;100.00;99262.59;5113335;28;20560;-62
2021/06/21 01:25:10;;;;;;;6.53;2.88;;;20.00;99.90;;;20.86;100.00;99264.28;5113323;28;20206;-61
2021/06/21 01:27:57;;;;;;;4.40;2.78;;;19.90;99.90;;;20.80;100.00;99247.19;5113548;28;20202;-63
2021/06/21 01:30:42;;;;;;;4.70;2.70;;;19.90;99.90;;;20.79;100.00;99223.63;5113553;28;20219;-61
2021/06/21 01:33:13;;;;;;;3.83;2.30;;;19.80;99.90;;;20.93;100.00;99188.81;5113255;28;20273;-61
2021/06/21 01:35:49;;;;;;;6.07;2.70;;;19.80;99.90;;;20.89;100.00;99163.16;5113464;28;20193;-61
2021/06/21 01:38:25;;;;;;;6.03;2.60;;;19.80;99.90;;;20.84;100.00;99140.56;5113188;28;20206;-62
2021/06/21 01:40:57;;;;;;;7.07;3.17;;;19.80;99.90;;;20.57;100.00;99117.66;5113452;28;20190;-61
2021/06/21 01:43:31;;;;;;;6.75;2.92;;;19.80;99.90;;;20.55;100.00;99130.84;5113058;28;20240;-62
2021/06/21 01:46:05;;;;;;;5.47;2.95;;;19.70;99.90;;;20.70;100.00;99143.34;5113266;28;20215;-61
2021/06/21 01:48:39;;;;;;;6.80;2.78;;;19.70;99.90;;;20.55;100.00;99144.53;5113211;28;20236;-61
2021/06/21 01:51:07;;;;;;;6.97;3.13;;;19.70;99.90;;;20.96;100.00;99168.19;5112618;28;20681;-62
2021/06/21 01:53:39;;;;;;;3.60;2.90;;;19.80;99.90;;;20.74;100.00;99152.56;5112968;28;20286;-61
2021/06/21 01:56:15;;;;;;;7.30;3.58;;;19.80;99.90;;;20.73;100.00;99140.03;5112556;28;20183;-62
2021/06/21 01:58:47;;;;;;;5.03;3.10;;;19.80;99.90;;;20.76;100.00;99108.44;5113167;28;20275;-62
2021/06/21 02:01:19;;;;;;;4.35;2.95;;;19.80;99.90;;;20.72;100.00;99127.44;5113007;28;20183;-62
2021/06/21 02:03:51;;;;;;;6.75;2.85;;;19.80;99.90;;;20.79;100.00;99135.19;5113053;28;20184;-62
2021/06/21 02:06:20;;;;;;;4.35;3.00;;;19.80;99.90;;;-141.85;100.00;63675.41;5112836;28;20179;-62
2021/06/21 02:08:51;;;;;;;8.07;3.10;;;19.80;99.90;;;20.73;100.00;99148.22;5113094;28;20196;-62
2021/06/21 02:11:20;;;;;;;3.78;2.90;;;19.70;99.90;;;20.75;100.00;99151.47;5113051;28;20180;-61
2021/06/21 02:13:51;;;;;;;5.32;3.25;;;19.80;99.90;;;20.62;100.00;63675.41;5112977;28;20198;-61
2021/06/21 02:16:21;;;;;;;4.22;2.80;;;19.70;99.90;;;-141.85;100.00;63675.41;5112722;28;20377;-61
2021/06/21 02:18:53;;;;;;;3.78;2.90;;;19.70;99.90;;;-141.85;100.00;63675.41;5112943;28;20231;-62
2021/06/21 02:21:22;;;;;;;4.80;2.83;;;19.80;99.90;;;-141.85;100.00;63675.41;5112647;28;20206;-62
2021/06/21 02:23:53;;;;;;;4.82;2.72;;;19.70;99.90;;;-141.85;100.00;63675.41;5112180;28;20749;-62
2021/06/21 02:26:23;;;;;;;4.40;2.30;;;19.70;99.90;;;-141.85;100.00;63675.41;5112839;28;20186;-62
2021/06/21 02:28:56;;;;;;;4.75;2.70;;;19.70;99.90;;;-141.85;100.00;63675.41;5112578;28;20593;-62
2021/06/21 02:31:24;;;;;;;4.63;2.80;;;19.70;99.90;;;-141.85;100.00;63675.41;5112829;28;20222;-61
2021/06/21 02:33:54;;;;;;;4.78;3.10;;;19.80;99.90;;;-141.85;100.00;63675.41;5112845;28;20286;-62
2021/06/21 02:36:22;;;;;;;5.85;2.85;;;19.80;99.90;;;-141.85;100.00;63675.41;5112746;28;20252;-62
2021/06/21 02:38:51;;;;;;;6.05;2.83;;;19.80;99.90;;;-141.85;100.00;63675.41;5112163;28;20740;-62
2021/06/21 02:41:19;;;;;;;4.22;2.78;;;19.90;99.90;;;-141.85;100.00;63675.41;5112621;28;20247;-62
2021/06/21 02:43:47;;;;;;;5.28;2.72;;;19.90;99.90;;;-141.85;100.00;63675.41;5112248;28;20566;-62
2021/06/21 02:46:15;;;;;;;6.47;2.80;;;19.90;99.90;;;-141.85;100.00;63675.41;5112366;28;20202;-63
2021/06/21 02:48:45;;;;;;;4.50;2.83;;;20.00;99.90;;;-141.85;100.00;63675.41;5112430;28;20200;-62
2021/06/21 02:51:30;;;;;;;3.40;2.78;;;20.00;99.90;;;-141.85;100.00;63675.41;5112094;28;20208;-63
2021/06/21 02:54:04;;;;;;;2.80;2.55;;;19.90;99.90;;;-141.85;100.00;63675.41;5112266;28;20202;-62
2021/06/21 02:56:39;;;;;;;4.72;2.90;;;19.90;99.90;;;-141.85;100.00;63675.41;5112329;28;20186;-63
2021/06/21 02:59:15;;;;;;;4.53;3.05;;;19.80;99.90;;;-141.85;100.00;63675.41;5112575;28;20189;-62
2021/06/21 03:01:48;;;;;;;6.70;3.08;;;19.80;99.90;;;-141.85;100.00;63675.41;5112600;28;20271;-62
2021/06/21 03:04:19;;;;;;;6.28;3.17;;;19.80;99.90;;;-141.85;100.00;63675.41;5112459;28;20184;-62
2021/06/21 03:06:52;;;;;;;5.43;2.92;;;19.80;99.90;;;-141.85;100.00;63675.41;5112431;28;20274;-63
2021/06/21 03:09:22;;;;;;;4.78;2.85;;;19.80;99.90;;;-141.85;100.00;63675.41;5115989;28;20183;-62
2021/06/21 03:11:53;;;;;;;5.25;2.70;;;19.80;99.90;;;-141.85;100.00;63675.41;5116215;28;20187;-63
2021/06/21 03:14:24;;;;;;;5.40;3.03;;;19.90;99.90;;;-141.85;100.00;63675.41;5116003;28;20275;-62
2021/06/21 03:16:54;;;;;;;4.95;3.13;;;19.80;99.90;;;-141.85;100.00;63675.41;5115923;28;20179;-62
2021/06/21 03:19:24;;;;;;;4.57;3.00;;;19.80;99.90;;;-141.85;100.00;63675.41;5116111;28;20464;-62
2021/06/21 03:21:54;;;;;;;4.68;3.00;;;19.80;99.90;;;-141.85;100.00;63675.41;5115756;28;20290;-62
2021/06/21 03:24:24;;;;;;;5.72;3.60;;;20.00;99.90;;;-141.85;100.00;63675.41;5115693;28;20215;-62
2021/06/21 03:26:52;;;;;;;5.32;3.40;;;20.00;99.90;;;-141.85;100.00;63675.41;5115609;28;20290;-63
2021/06/21 03:29:23;;;;;;;4.35;3.05;;;20.10;99.90;;;-141.85;100.00;63675.41;5115937;28;20219;-63
2021/06/21 03:31:54;;;;;;;4.63;2.90;;;20.00;99.90;;;-141.85;100.00;63675.41;5115968;28;20215;-62
2021/06/21 03:34:24;;;;;;;7.30;3.00;;;20.00;99.90;;;-141.85;100.00;63675.41;5115844;28;20176;-63
2021/06/21 03:36:54;;;;;;;6.75;3.40;;;19.90;99.90;;;-141.85;100.00;63675.41;5114941;28;20666;-62
2021/06/21 03:39:22;;;;;;;5.10;3.20;;;20.00;99.90;;;-141.85;100.00;63675.41;5115198;28;20876;-62
2021/06/21 03:41:50;;;;;;;5.43;3.13;;;20.20;99.90;;;-141.85;100.00;63675.41;5115153;28;20742;-63
2021/06/21 03:44:18;;;;;;;4.90;2.85;;;20.20;99.90;;;-141.85;100.00;63675.41;5115136;28;20219;-62
2021/06/21 03:46:46;;;;;;;4.55;3.13;;;20.20;99.90;;;-141.85;100.00;63675.41;5117621;27;20238;-62
2021/06/21 03:49:14;;;;;;;4.40;3.10;;;20.20;99.90;;;-141.85;100.00;63675.41;5115513;28;20200;-62
2021/06/21 03:51:42;;;;;;;5.07;2.88;;;20.40;99.90;;;-141.85;100.00;63675.41;5115077;28;20235;-62
2021/06/21 03:54:11;;;;;;;4.75;2.97;;;20.50;99.90;;;-141.85;100.00;63675.41;5115128;28;20205;-62
2021/06/21 03:56:39;;;;;;;4.78;2.78;;;20.50;99.90;;;-141.85;100.00;63675.41;5115494;28;20284;-63
2021/06/21 03:59:07;;;;;;;8.10;3.08;;;20.50;99.90;;;-141.85;100.00;63675.41;5115433;28;20203;-63
2021/06/21 04:01:35;;;;;;;5.18;2.95;;;20.50;99.90;;;-141.85;100.00;63675.41;5114996;28;20195;-63
2021/06/21 04:04:03;;;;;;;4.78;3.03;;;20.40;99.90;;;-141.85;100.00;63675.41;5115095;28;20222;-63
2021/06/21 04:06:31;;;;;;;5.78;3.20;;;20.30;99.90;;;-141.85;100.00;63675.41;5114896;28;20290;-63
2021/06/21 04:08:59;;;;;;;4.72;3.10;;;20.40;99.90;;;-141.85;100.00;63675.41;5114727;28;20284;-63
2021/06/21 04:11:29;;;;;;;4.05;2.78;;;20.40;99.90;;;-141.85;100.00;63675.41;5114738;28;20217;-63
2021/06/21 04:13:57;;;;;;;3.67;3.03;;;20.60;99.90;;;-141.85;100.00;63675.41;5114993;28;20261;-62
2021/06/21 04:16:25;;;;;;;6.93;2.67;;;20.60;99.90;;;-141.85;100.00;63675.41;5114819;28;20278;-62
2021/06/21 04:18:53;;;;;;;4.07;2.88;;;20.70;99.90;;;-141.85;100.00;63675.41;5114042;28;20200;-63
2021/06/21 04:21:23;;;;;;;4.80;2.60;;;20.70;99.90;;;-141.85;100.00;63675.41;5114762;28;20199;-63
2021/06/21 04:23:51;;;;;;;3.53;2.60;;;20.50;99.90;;;-141.85;100.00;63675.41;5114452;28;20297;-63
2021/06/21 04:26:19;;;;;;;2.92;2.60;;;20.40;99.90;;;-141.85;100.00;63675.41;5114817;28;20203;-63
2021/06/21 04:28:49;;;;;;;4.22;2.92;;;20.30;99.90;;;-141.85;100.00;63675.41;5114767;28;20287;-63
2021/06/21 04:31:17;;;;;;;4.95;2.90;;;20.30;99.90;;;-141.85;100.00;63675.41;5114824;28;20242;-63
2021/06/21 04:33:46;;;;;;;4.07;2.75;;;20.30;99.90;;;-141.85;100.00;63675.41;5114724;28;20202;-63
2021/06/21 04:36:14;;;;;;;5.43;2.88;;;20.50;99.90;;;-141.85;100.00;63675.41;5114496;28;20302;-63
2021/06/21 04:38:42;;;;;;;6.40;2.75;;;20.60;99.90;;;-141.85;100.00;63675.41;5114222;28;20204;-63
2021/06/21 04:41:10;;;;;;;3.80;2.40;;;20.70;99.90;;;-141.85;100.00;63675.41;5114473;28;20287;-62
2021/06/21 04:43:38;;;;;;;6.93;2.67;;;20.70;99.90;;;-141.85;100.00;63675.41;5114082;28;20310;-62
2021/06/21 04:46:07;;;;;;;6.43;2.67;;;20.70;99.90;;;-141.85;100.00;63675.41;5114160;28;20294;-62
2021/06/21 04:48:35;;;;;;;5.03;2.17;;;20.70;99.90;;;-141.85;100.00;63675.41;5114197;28;20199;-62
2021/06/21 04:51:04;;;;;;;3.38;2.47;;;20.70;99.90;;;-141.85;100.00;63675.41;5113829;28;20681;-62
2021/06/21 04:53:32;;;;;;;4.13;1.95;;;20.90;99.90;;;-141.85;100.00;63675.41;5113511;28;20275;-62
2021/06/21 04:56:00;;;;;;;2.88;1.90;;;22.00;99.90;;;-141.85;100.00;63675.41;5113826;28;20204;-62
2021/06/21 04:58:34;;;;;;;4.28;1.92;;;23.60;99.90;;;-141.85;100.00;63675.41;5113806;28;20211;-61
2021/06/21 05:01:03;;;;;;;5.28;2.30;;;25.20;99.90;;;-141.85;100.00;63675.41;5113970;28;20219;-62
2021/06/21 05:03:36;;;;;;;3.42;2.05;;;26.60;99.90;;;-141.85;100.00;63675.41;5113954;28;20208;-63
2021/06/21 05:06:06;;;;;;;3.85;1.85;;;27.60;99.90;;;-141.85;100.00;63675.41;5113698;28;20186;-63
2021/06/21 05:08:35;;;;;;;6.78;2.13;;;28.20;99.90;;;-141.85;100.00;63675.41;5113316;28;20661;-62
2021/06/21 05:11:03;;;;;;;4.03;2.80;;;28.80;99.90;;;-141.85;100.00;63675.41;5113480;28;20211;-62
2021/06/21 05:13:31;;;;;;;4.53;2.60;;;28.10;99.90;;;-141.85;100.00;63675.41;5113566;28;20199;-62
2021/06/21 05:15:59;;;;;;;5.47;2.80;;;27.50;99.90;;;-141.85;100.00;63675.41;5113693;28;20221;-61
2021/06/21 05:18:27;;;;;;;6.45;2.65;;;27.70;99.90;;;-141.85;100.00;63675.41;5113652;28;20273;-63
2021/06/21 05:20:56;;;;;;;4.22;2.20;;;27.70;99.90;;;-141.85;100.00;63675.41;5113636;28;20294;-63
2021/06/21 05:23:24;;;;;;;5.18;2.92;;;27.70;99.90;;;-141.85;100.00;63675.41;5112997;28;20294;-63
2021/06/21 05:25:52;;;;;;;5.82;2.30;;;28.20;99.90;;;-141.85;100.00;63675.41;5113181;28;20203;-61
2021/06/21 05:28:20;;;;;;;6.47;2.40;;;28.90;99.90;;;-141.85;100.00;63675.41;5113062;28;20227;-62
2021/06/21 05:30:48;;;;;;;4.57;2.10;;;29.40;99.90;;;-141.85;100.00;63675.41;5112018;28;20278;-62
2021/06/21 05:33:16;;;;;;;2.60;1.70;;;30.00;99.90;;;-141.85;100.00;63675.41;5113036;28;20195;-61
2021/06/21 05:35:44;;;;;;;4.05;1.90;;;30.10;99.90;;;-141.85;100.00;63675.41;5113155;28;20211;-61
2021/06/21 05:38:14;;;;;;;4.00;1.92;;;30.10;99.90;;;-141.85;100.00;63675.41;5112888;28;20222;-62
2021/06/21 05:40:42;;;;;;;4.88;1.70;;;29.60;99.90;;;-141.85;100.00;63675.41;5113304;28;20207;-62
2021/06/21 05:43:10;;;;;;;3.85;1.90;;;29.10;99.90;;;-141.85;100.00;63675.41;5113241;28;20302;-63
2021/06/21 05:45:38;;;;;;;4.35;1.80;;;28.40;99.90;;;-141.85;100.00;63675.41;5113137;28;20241;-64
2021/06/21 05:48:07;;;;;;;4.18;1.90;;;27.30;99.90;;;-141.85;100.00;63675.41;5112873;28;20203;-63
2021/06/21 05:50:37;;;;;;;6.95;2.05;;;26.50;99.90;;;-141.85;100.00;63675.41;5112720;28;20295;-63
2021/06/21 05:53:05;;;;;;;6.25;2.40;;;25.90;99.90;;;-141.85;100.00;63675.41;5112535;28;20273;-64
2021/06/21 05:55:34;;;;;;;4.20;1.98;;;25.20;99.90;;;-141.85;100.00;63675.41;5112993;28;20562;-63
2021/06/21 05:58:03;;;;;;;6.28;2.40;;;24.40;99.90;;;-141.85;100.00;63675.41;5112193;28;20203;-64
2021/06/21 06:00:31;;;;;;;3.35;1.83;;;24.10;99.90;;;-141.85;100.00;63675.41;5112668;28;20294;-64
2021/06/21 06:02:59;;;;;;;3.35;2.10;;;23.80;99.90;;;-141.85;100.00;63675.41;5112562;28;20203;-63
2021/06/21 06:05:29;;;;;;;4.05;2.00;;;23.60;99.90;;;-141.85;100.00;63675.41;5112426;28;20276;-63
2021/06/21 06:07:57;;;;;;;2.80;1.77;;;23.50;99.90;;;-141.85;100.00;63675.41;5112288;28;20588;-63
2021/06/21 06:10:25;;;;;;;5.18;1.90;;;23.50;99.90;;;-141.85;100.00;63675.41;5112544;28;20195;-64
2021/06/21 06:12:54;;;;;;;5.47;2.03;;;23.40;99.90;;;-141.85;100.00;63675.41;5112830;28;20199;-63
2021/06/21 06:15:23;;;;;;;4.43;2.03;;;23.50;99.90;;;-141.85;100.00;63675.41;5112316;28;20651;-65
2021/06/21 06:17:52;;;;;;;5.90;2.33;;;23.60;99.90;;;-141.85;100.00;63675.41;5111723;28;20718;-63
2021/06/21 06:20:21;;;;;;;4.50;2.05;;;23.60;99.90;;;-141.85;100.00;63675.41;5112639;28;20660;-63
2021/06/21 06:22:50;;;;;;;6.22;2.15;;;23.60;99.90;;;-141.85;100.00;63675.41;5110557;28;20286;-60
2021/06/21 06:25:18;;;;;;;7.45;2.30;;;23.60;99.90;;;-141.85;100.00;63675.41;5109673;28;20231;-62
2021/06/21 06:27:47;;;;;;;5.20;2.30;;;23.60;99.90;;;-141.85;100.00;63675.41;5109718;28;20693;-61
2021/06/21 06:30:18;;;;;;;3.75;1.80;;;23.60;99.90;;;-141.85;100.00;63675.41;5109506;28;20206;-61
2021/06/21 06:32:46;;;;;;;2.92;1.95;;;23.60;99.90;;;-141.85;100.00;63675.41;5109862;28;20179;-60
2021/06/21 06:35:15;;;;;;;5.72;1.95;;;23.60;99.90;;;-141.85;100.00;63675.41;5109445;28;20210;-64
2021/06/21 06:37:44;;;;;;;4.05;2.00;;;23.90;99.90;;;-141.85;100.00;63675.41;5108856;28;20226;-62
2021/06/21 06:40:14;;;;;;;4.15;2.00;;;24.00;99.90;;;-141.85;100.00;63675.41;5109270;28;20217;-60
2021/06/21 06:42:43;;;;;;;2.78;2.22;;;24.10;99.90;;;-141.85;100.00;63675.41;5110070;28;20670;-61
2021/06/21 06:45:14;;;;;;;4.38;2.13;;;24.20;99.90;;;-141.85;100.00;63675.41;5113010;28;20253;-61
2021/06/21 06:47:43;;;;;;;5.82;2.25;;;24.30;99.90;;;-141.85;100.00;63675.41;5112916;28;20199;-63
2021/06/21 06:50:13;;;;;;;3.88;2.25;;;24.30;99.90;;;-141.85;100.00;63675.41;5113619;28;20214;-64
2021/06/21 06:52:42;;;;;;;3.83;2.58;;;24.30;99.90;;;-141.85;100.00;63675.41;5113093;28;20262;-67
2021/06/21 06:57:59;;;;;;;5.97;2.05;;;24.50;99.90;;;-141.85;100.00;63675.41;5113522;28;20183;-63
2021/06/21 07:00:27;;;;;;;3.67;2.10;;;24.60;99.90;;;-141.85;100.00;63675.41;5113355;28;20291;-63
2021/06/21 07:02:56;;;;;;;5.40;2.08;;;24.80;99.90;;;-141.85;100.00;63675.41;5113369;28;20206;-63
2021/06/21 07:05:24;;;;;;;3.55;2.30;;;24.90;99.90;;;-141.85;100.00;63675.41;5113438;28;20230;-62
2021/06/21 07:07:57;;;;;;;6.90;2.30;;;24.70;99.90;;;-141.85;100.00;63675.41;5113147;28;20595;-62
2021/06/21 07:10:25;;;;;;;4.95;2.10;;;24.80;99.90;;;-141.85;100.00;63675.41;5112879;28;20270;-63
2021/06/21 07:12:53;;;;;;;4.03;2.10;;;24.60;99.90;;;-141.85;100.00;63675.41;5112680;28;20286;-63
2021/06/21 07:15:22;;;;;;;6.55;2.28;;;24.40;99.90;;;-141.85;100.00;63675.41;5112899;28;20538;-63
2021/06/21 07:17:50;;;;;;;6.25;2.40;;;24.30;99.90;;;-141.85;100.00;63675.41;5112766;28;20300;-62
2021/06/21 07:20:20;;;;;;;7.70;2.45;;;24.40;99.90;;;-141.85;100.00;63675.41;5112625;28;20217;-61
2021/06/21 07:22:48;;;;;;;6.28;2.40;;;24.40;99.90;;;-141.85;100.00;63675.41;5112633;28;20202;-62
2021/06/21 07:25:16;;;;;;;5.60;2.50;;;24.50;99.90;;;-141.85;100.00;63675.41;5112327;28;20230;-61
2021/06/21 07:27:44;;;;;;;5.57;2.50;;;24.70;99.90;;;-141.85;100.00;63675.41;5112694;28;20210;-61
2021/06/21 07:30:14;;;;;;;7.68;2.58;;;24.80;99.90;;;-141.85;100.00;63675.41;5112379;28;20207;-62
2021/06/21 07:32:42;;;;;;;6.53;2.40;;;24.90;99.90;;;-141.85;100.00;63675.41;5112206;28;20812;-65
2021/06/21 07:35:11;;;;;;;6.82;2.70;;;24.90;99.90;;;-141.85;100.00;63675.41;5112585;28;20268;-62
2021/06/21 07:37:41;;;;;;;6.47;2.65;;;24.90;99.90;;;-141.85;100.00;63675.41;5111940;28;20681;-63
2021/06/21 07:40:11;;;;;;;8.18;2.42;;;25.00;99.90;;;-141.85;100.00;63675.41;5112347;28;20202;-64
2021/06/21 07:42:40;;;;;;;5.60;2.53;;;25.00;99.90;;;-141.85;100.00;63675.41;5112379;28;20278;-61
2021/06/21 07:45:09;;;;;;;5.53;2.95;;;25.00;99.90;;;-141.85;100.00;63675.41;5112419;28;20559;-61
2021/06/21 07:47:37;;;;;;;8.25;2.53;;;25.10;99.90;;;-141.85;100.00;63675.41;5111788;28;20580;-62
2021/06/21 07:50:06;;;;;;;7.40;2.55;;;25.20;99.90;;;-141.85;100.00;63675.41;5112214;28;20318;-60
2021/06/21 07:52:34;;;;;;;4.50;2.42;;;25.60;99.90;;;-141.85;100.00;63675.41;5111670;28;20231;-61
2021/06/21 07:55:05;;;;;;;7.30;2.72;;;25.70;99.90;;;-141.85;100.00;63675.41;5111195;28;20195;-63
2021/06/21 07:57:33;;;;;;;7.25;3.00;;;26.00;99.90;;;-141.85;100.00;63675.41;5111796;28;20203;-60
2021/06/21 08:00:01;;;;;;;14.38;3.78;;;26.20;99.90;;;-141.85;100.00;63675.41;5111758;28;20206;-61
2021/06/21 08:02:29;;;;;;;9.90;3.25;;;26.40;99.90;;;-141.85;100.00;63675.41;5111853;28;20227;-64
2021/06/21 08:04:57;;;;;;;4.50;2.65;;;26.50;99.90;;;-141.85;100.00;63675.41;5111528;28;20336;-64
2021/06/21 08:07:25;;;;;;;6.20;3.03;;;26.60;99.90;;;-141.85;100.00;63675.41;5111591;28;20205;-60
2021/06/21 08:09:53;;;;;;;5.80;2.97;;;26.70;99.90;;;-141.85;100.00;63675.41;5111563;28;20203;-60
2021/06/21 08:12:22;;;;;;;4.22;2.92;;;26.50;99.90;;;-141.85;100.00;63675.41;5111621;28;20205;-60
2021/06/21 08:14:50;;;;;;;6.28;2.67;;;26.30;99.90;;;-141.85;100.00;63675.41;5111851;28;20581;-61
2021/06/21 08:17:18;;;;;;;6.60;2.80;;;26.30;99.90;;;-141.85;100.00;63675.41;5111231;28;20219;-63
2021/06/21 08:19:47;;;;;;;4.93;2.88;;;26.10;99.90;;;-141.85;100.00;63675.41;5111121;28;20291;-66
2021/06/21 08:22:21;;;;;;;6.43;3.17;;;26.00;99.90;;;-141.85;100.00;63675.41;5111304;28;20252;-62
2021/06/21 08:24:49;;;;;;;7.10;2.92;;;25.90;99.90;;;-141.85;100.00;63675.41;5110941;28;20279;-62
2021/06/21 08:27:18;;;;;;;6.63;3.08;;;25.80;99.90;;;-141.85;100.00;63675.41;5111254;28;20542;-64
2021/06/21 08:29:48;;;;;;;7.80;2.60;;;25.80;99.90;;;-141.85;100.00;63675.41;5111461;28;20204;-64
2021/06/21 08:32:17;;;;;;;6.10;3.10;;;25.80;99.90;;;-141.85;100.00;63675.41;5111479;28;20237;-63
2021/06/21 08:34:45;;;;;;;6.68;3.05;;;25.80;99.90;;;-141.85;100.00;63675.41;5111104;28;20273;-65
2021/06/21 08:37:13;;;;;;;5.80;2.97;;;25.90;99.90;;;-141.85;100.00;63675.41;5111248;28;20294;-65
2021/06/21 08:39:41;;;;;;;11.35;3.17;;;25.80;99.90;;;-141.85;100.00;63675.41;5110276;28;20206;-63
2021/06/21 08:42:09;;;;;;;7.93;3.35;;;25.80;99.90;;;-141.85;100.00;63675.41;5111221;28;20286;-64
2021/06/21 08:44:38;;;;;;;7.63;3.13;;;25.70;99.90;;;-141.85;100.00;63675.41;5110935;28;20722;-62
2021/06/21 08:47:07;;;;;;;5.10;3.10;;;25.70;99.90;;;-141.85;100.00;63675.41;5110786;28;20582;-63
2021/06/21 08:49:43;;;;;;;8.90;3.45;;;25.70;99.90;;;-141.85;100.00;63675.41;5111170;28;20180;-62
2021/06/21 08:52:12;;;;;;;6.25;3.00;;;25.80;99.90;;;-141.85;100.00;63675.41;5110365;28;20587;-64
2021/06/21 08:54:40;;;;;;;4.55;2.97;;;25.90;99.90;;;-141.85;100.00;63675.41;5110838;28;20234;-66
2021/06/21 08:57:10;;;;;;;4.30;3.30;;;26.20;99.90;;;-141.85;100.00;63675.41;5110965;28;20196;-62
2021/06/21 08:59:40;;;;;;;6.35;2.83;;;26.20;99.90;;;-141.85;100.00;63675.41;5114014;27;20308;-62
2021/06/21 09:02:13;;;;;;;6.15;3.47;;;26.40;99.90;;;-141.85;100.00;63675.41;5131446;27;20198;-63
2021/06/21 09:04:42;;;;;;;6.47;3.03;;;26.40;99.90;;;-141.85;100.00;63675.41;5122990;27;20290;-63
2021/06/21 09:07:22;;;;;;;7.57;3.42;;;26.40;99.90;;;-141.85;100.00;63675.41;5109894;28;20313;-62
2021/06/21 09:09:52;;;;;;;10.10;3.55;;;26.50;99.90;;;-141.85;100.00;63675.41;5110222;28;20270;-63
2021/06/21 09:12:23;;;;;;;7.93;3.08;;;26.50;99.90;;;-141.85;100.00;63675.41;5110346;28;20282;-63
2021/06/21 09:14:52;;;;;;;9.20;3.00;;;26.50;99.90;;;-141.85;100.00;63675.41;5111546;28;20183;-65
2021/06/21 09:17:25;;;;;;;8.60;3.78;;;26.50;99.90;;;-141.85;100.00;63675.41;5111263;28;20293;-67
2021/06/21 09:19:56;;;;;;;6.55;3.30;;;26.60;99.90;;;-141.85;100.00;63675.41;5110146;28;20519;-65
2021/06/21 09:22:32;;;;;;;8.68;3.00;;;26.50;99.90;;;-141.85;100.00;63675.41;5109943;28;20183;-62
2021/06/21 09:25:05;;;;;;;9.57;3.28;;;26.50;99.90;;;-141.85;100.00;63675.41;5109728;28;20301;-64
2021/06/21 09:27:35;;;;;;;5.43;2.60;;;26.50;99.90;;;-141.85;100.00;63675.41;5109529;28;20218;-63
2021/06/21 09:30:08;;;;;;;8.77;3.30;;;26.50;99.90;;;-141.85;100.00;63675.41;5109589;28;20262;-62
2021/06/21 09:32:48;;;;;;;10.10;3.97;;;26.60;99.90;;;-141.85;100.00;63675.41;5110201;28;20247;-63
2021/06/21 09:35:43;;;;;;;8.27;2.75;;;26.60;99.90;;;-141.85;100.00;63675.41;5109739;28;20180;-65
2021/06/21 09:38:17;;;;;;;8.30;3.20;;;26.60;99.90;;;-141.85;100.00;63675.41;5109140;28;20664;-66
2021/06/21 09:40:51;;;;;;;5.75;3.10;;;26.60;99.90;;;-141.85;100.00;63675.41;5109733;28;20194;-62
2021/06/21 09:43:26;;;;;;;7.68;3.17;;;26.50;99.90;;;-141.85;100.00;63675.41;5109910;28;20191;-61
2021/06/21 09:46:14;;;;;;;10.38;3.10;;;26.60;99.90;;;-141.85;100.00;63675.41;5109921;28;20238;-61
2021/06/21 09:48:47;;;;;;;8.52;3.10;;;26.80;99.90;;;-141.85;100.00;63675.41;5088986;28;20180;-61
2021/06/21 09:51:26;;;;;;;10.57;3.20;;;26.90;99.90;;;-141.85;100.00;63675.41;5089195;28;20287;-60
2021/06/21 09:54:00;;;;;;;7.43;3.08;;;27.00;99.90;;;-141.85;100.00;63675.41;5089216;28;20195;-61
2021/06/21 09:56:48;;;;;;;9.85;2.67;;;27.30;99.90;;;-141.85;100.00;63675.41;5089232;28;20181;-63
2021/06/21 09:59:25;;;;;;;8.55;2.67;;;27.60;99.90;;;-141.85;100.00;63675.41;5088937;28;20271;-64
2021/06/21 10:02:10;;;;;;;6.35;2.85;;;27.70;99.90;;;-141.85;100.00;63675.41;5088970;28;20271;-64
2021/06/21 10:04:42;;;;;;;9.18;3.05;;;27.80;99.90;;;-141.85;100.00;63675.41;5089061;28;20217;-62
2021/06/21 10:07:27;;;;;;;7.22;3.00;;;27.90;99.90;;;-141.85;100.00;63675.41;5089181;28;20239;-62
2021/06/21 10:09:58;;;;;;;8.20;3.00;;;27.90;99.90;;;-141.85;100.00;63675.41;5088777;28;20566;-62
2021/06/21 10:12:27;;;;;;;8.32;3.15;;;27.90;99.90;;;-141.85;100.00;63675.41;5088723;28;20189;-61
2021/06/21 10:14:56;;;;;;;6.60;2.88;;;27.80;99.90;;;-141.85;100.00;63675.41;5088528;28;20287;-62
2021/06/21 10:17:25;;;;;;;5.65;2.95;;;27.80;99.90;;;-141.85;100.00;63675.41;5087658;28;20204;-62
2021/06/21 10:19:56;;;;;;;8.85;3.28;;;27.60;99.90;;;-141.85;100.00;63675.41;5088680;28;20694;-62